IBE6175 KLAX-LEMD
Flight info
| Callsign | IBE6175 |
|---|---|
| Flight time | N/A |
| Altitude | 35000 |
| Route | ORCKA5 LAS DCT BAWER DCT JNC DCT FQF DCT STJ/N0486F370 DCT SPI DCT VHP DCT SHB DCT RID DCT AIR DCT IHD DCT CYN DCT OWENZ DCT JOBOC/M083F370 DCT 40N060W 41N050W/M083F390 4130N04000W 42N030W 42N020W DCT BANAL/N0477F410 DCT ADORO/N0485F400 L155 ZMR |
| Aircraft | B772/H-SDE2E3FGHIJ5LORVWXY/LB1D1 |
Departure
| Time | N/A |
|---|---|
| Airport | Los Angeles International Airport (KLAX) |
Arrival
| Time | 2026-05-07 11:04 |
|---|---|
| Airport | Adolfo Suárez Madrid–Barajas Airport (LEMD) |
| Time | Latitude | Longitude | Altitude | Speed | Heading |
|---|---|---|---|---|---|
| 2026-05-07 09:56 | 42.02148 | -18.63923 | 38897 ft | 496 kts | 91° |
| 2026-05-07 09:57 | 42.02318 | -18.45208 | 38925 ft | 496 kts | 91° |
| 2026-05-07 09:57 | 42.02565 | -18.08050 | 38934 ft | 496 kts | 91° |
| 2026-05-07 09:58 | 42.02692 | -17.70876 | 38927 ft | 496 kts | 91° |
| 2026-05-07 09:58 | 42.02701 | -17.33979 | 38940 ft | 496 kts | 92° |
| 2026-05-07 09:59 | 42.02589 | -16.96858 | 38939 ft | 496 kts | 92° |
| 2026-05-07 09:59 | 42.02358 | -16.59712 | 38947 ft | 497 kts | 92° |
| 2026-05-07 10:00 | 42.02006 | -16.22530 | 38956 ft | 498 kts | 92° |
| 2026-05-07 10:00 | 42.01533 | -15.85213 | 38961 ft | 499 kts | 92° |
| 2026-05-07 10:01 | 42.00937 | -15.47804 | 38961 ft | 501 kts | 92° |
| 2026-05-07 10:01 | 42.00683 | -15.33802 | 39248 ft | 503 kts | 92° |
| 2026-05-07 10:01 | 42.00504 | -15.24416 | 39619 ft | 503 kts | 92° |
| 2026-05-07 10:01 | 42.00411 | -15.19727 | 39840 ft | 502 kts | 92° |
| 2026-05-07 10:02 | 42.00316 | -15.15039 | 40059 ft | 501 kts | 92° |
| 2026-05-07 10:02 | 42.00221 | -15.10416 | 40252 ft | 501 kts | 92° |
| 2026-05-07 10:02 | 42.00122 | -15.05670 | 40426 ft | 501 kts | 92° |
| 2026-05-07 10:02 | 42.00023 | -15.01041 | 40591 ft | 501 kts | 92° |
| 2026-05-07 10:03 | 41.99922 | -14.96360 | 40752 ft | 501 kts | 92° |
| 2026-05-07 10:03 | 41.99819 | -14.91675 | 40872 ft | 502 kts | 92° |
| 2026-05-07 10:03 | 41.99715 | -14.86972 | 40921 ft | 504 kts | 92° |
| 2026-05-07 10:04 | 41.99501 | -14.77556 | 40964 ft | 503 kts | 92° |
| 2026-05-07 10:04 | 41.99281 | -14.68173 | 40974 ft | 501 kts | 92° |
| 2026-05-07 10:05 | 41.99054 | -14.58819 | 40965 ft | 500 kts | 92° |
| 2026-05-07 10:05 | 41.98820 | -14.49494 | 40973 ft | 499 kts | 92° |
| 2026-05-07 10:06 | 41.98578 | -14.40175 | 40967 ft | 499 kts | 92° |
| 2026-05-07 10:06 | 41.98329 | -14.30862 | 40977 ft | 499 kts | 92° |
| 2026-05-07 10:07 | 41.98073 | -14.21542 | 40980 ft | 499 kts | 92° |
| 2026-05-07 10:07 | 41.97808 | -14.12207 | 40980 ft | 501 kts | 92° |
| 2026-05-07 10:08 | 41.97537 | -14.02908 | 40978 ft | 502 kts | 92° |
| 2026-05-07 10:08 | 41.97255 | -13.93534 | 40969 ft | 502 kts | 92° |
| 2026-05-07 10:09 | 41.96966 | -13.84141 | 40968 ft | 503 kts | 92° |
| 2026-05-07 10:09 | 41.96669 | -13.74734 | 40973 ft | 504 kts | 92° |
| 2026-05-07 10:10 | 41.96364 | -13.65327 | 40968 ft | 504 kts | 92° |
| 2026-05-07 10:10 | 41.96051 | -13.55913 | 40976 ft | 504 kts | 92° |
| 2026-05-07 10:11 | 41.95730 | -13.46506 | 40976 ft | 504 kts | 92° |
| 2026-05-07 10:11 | 41.95402 | -13.37103 | 40975 ft | 504 kts | 92° |
| 2026-05-07 10:12 | 41.95066 | -13.27707 | 40968 ft | 503 kts | 92° |
| 2026-05-07 10:12 | 41.94723 | -13.18323 | 40974 ft | 503 kts | 92° |
| 2026-05-07 10:13 | 41.94375 | -13.08995 | 40972 ft | 503 kts | 92° |
| 2026-05-07 10:13 | 41.94017 | -12.99617 | 40975 ft | 503 kts | 92° |
| 2026-05-07 10:14 | 41.93652 | -12.90245 | 40979 ft | 502 kts | 92° |
| 2026-05-07 10:14 | 41.93279 | -12.80897 | 40976 ft | 502 kts | 93° |
| 2026-05-07 10:15 | 41.92899 | -12.71522 | 40977 ft | 502 kts | 93° |
| 2026-05-07 10:15 | 41.92511 | -12.62156 | 40976 ft | 502 kts | 93° |
| 2026-05-07 10:16 | 41.92115 | -12.52784 | 40965 ft | 502 kts | 93° |
| 2026-05-07 10:16 | 41.91712 | -12.43427 | 40973 ft | 502 kts | 93° |
| 2026-05-07 10:17 | 41.91300 | -12.34054 | 40976 ft | 503 kts | 93° |
| 2026-05-07 10:17 | 41.90881 | -12.24674 | 40972 ft | 503 kts | 93° |
| 2026-05-07 10:18 | 41.90454 | -12.15304 | 40967 ft | 503 kts | 93° |
| 2026-05-07 10:18 | 41.90019 | -12.05916 | 40975 ft | 504 kts | 93° |
| 2026-05-07 10:19 | 41.89576 | -11.96528 | 40968 ft | 504 kts | 93° |
| 2026-05-07 10:19 | 41.89126 | -11.87142 | 40965 ft | 505 kts | 93° |
| 2026-05-07 10:20 | 41.88667 | -11.77740 | 40969 ft | 505 kts | 94° |
| 2026-05-07 10:20 | 41.88200 | -11.68335 | 40969 ft | 505 kts | 93° |
| 2026-05-07 10:21 | 41.87724 | -11.58894 | 40971 ft | 510 kts | 94° |
| 2026-05-07 10:21 | 41.87238 | -11.49418 | 40974 ft | 515 kts | 94° |
| 2026-05-07 10:22 | 41.86737 | -11.39804 | 40973 ft | 518 kts | 94° |
| 2026-05-07 10:22 | 41.86225 | -11.30141 | 40963 ft | 521 kts | 94° |
| 2026-05-07 10:23 | 41.85703 | -11.20446 | 40962 ft | 521 kts | 94° |
| 2026-05-07 10:23 | 41.85173 | -11.10747 | 40953 ft | 520 kts | 94° |
| 2026-05-07 10:24 | 41.84638 | -11.01105 | 40955 ft | 517 kts | 94° |
| 2026-05-07 10:24 | 41.84097 | -10.91504 | 40955 ft | 515 kts | 94° |
| 2026-05-07 10:25 | 41.83551 | -10.81960 | 40948 ft | 513 kts | 94° |
| 2026-05-07 10:25 | 41.82999 | -10.72448 | 40952 ft | 511 kts | 94° |
| 2026-05-07 10:26 | 41.82444 | -10.63018 | 40953 ft | 510 kts | 94° |
| 2026-05-07 10:26 | 41.81878 | -10.53542 | 40947 ft | 510 kts | 94° |
| 2026-05-07 10:27 | 41.81304 | -10.44067 | 40950 ft | 511 kts | 94° |
| 2026-05-07 10:27 | 41.80721 | -10.34566 | 40946 ft | 512 kts | 95° |
| 2026-05-07 10:28 | 41.80129 | -10.25046 | 40943 ft | 513 kts | 95° |
| 2026-05-07 10:28 | 41.79528 | -10.15510 | 40942 ft | 514 kts | 95° |
| 2026-05-07 10:29 | 41.78918 | -10.05952 | 40944 ft | 515 kts | 95° |
| 2026-05-07 10:29 | 41.78298 | -9.96375 | 40938 ft | 516 kts | 95° |
| 2026-05-07 10:30 | 41.77352 | -9.81997 | 40930 ft | 517 kts | 95° |
| 2026-05-07 10:30 | 41.76711 | -9.72399 | 40928 ft | 517 kts | 95° |
| 2026-05-07 10:31 | 41.76061 | -9.62802 | 40924 ft | 517 kts | 95° |
| 2026-05-07 10:31 | 41.75404 | -9.53208 | 40938 ft | 517 kts | 95° |
| 2026-05-07 10:32 | 41.74738 | -9.43615 | 40931 ft | 517 kts | 95° |
| 2026-05-07 10:32 | 41.74064 | -9.34011 | 40934 ft | 517 kts | 95° |
| 2026-05-07 10:33 | 41.73388 | -9.24493 | 40933 ft | 517 kts | 95° |
| 2026-05-07 10:33 | 41.72699 | -9.14909 | 40935 ft | 517 kts | 95° |
| 2026-05-07 10:34 | 41.71973 | -9.05352 | 40929 ft | 516 kts | 98° |
| 2026-05-07 10:34 | 41.70335 | -8.95996 | 40934 ft | 516 kts | 107° |
| 2026-05-07 10:35 | 41.68229 | -8.86828 | 40910 ft | 516 kts | 108° |
| 2026-05-07 10:35 | 41.66122 | -8.77662 | 40923 ft | 516 kts | 107° |
| 2026-05-07 10:36 | 41.64045 | -8.68461 | 40923 ft | 517 kts | 107° |
| 2026-05-07 10:36 | 41.61980 | -8.59259 | 40904 ft | 517 kts | 107° |
| 2026-05-07 10:37 | 41.59911 | -8.50068 | 40904 ft | 517 kts | 107° |
| 2026-05-07 10:37 | 41.57829 | -8.40867 | 40916 ft | 517 kts | 107° |
| 2026-05-07 10:38 | 41.55740 | -8.31689 | 40895 ft | 517 kts | 107° |
| 2026-05-07 10:38 | 41.53995 | -8.24049 | 40913 ft | 517 kts | 108° |
| 2026-05-07 10:39 | 41.51891 | -8.14873 | 40909 ft | 517 kts | 108° |
| 2026-05-07 10:39 | 41.49784 | -8.05715 | 40897 ft | 517 kts | 108° |
| 2026-05-07 10:40 | 41.47668 | -7.96561 | 40902 ft | 516 kts | 108° |
| 2026-05-07 10:40 | 41.45545 | -7.87411 | 40886 ft | 516 kts | 108° |
| 2026-05-07 10:41 | 41.43419 | -7.78292 | 40908 ft | 516 kts | 108° |
| 2026-05-07 10:41 | 41.41281 | -7.69155 | 40886 ft | 516 kts | 108° |
| 2026-05-07 10:42 | 41.39141 | -7.60045 | 40896 ft | 516 kts | 108° |
| 2026-05-07 10:42 | 41.36992 | -7.50930 | 40906 ft | 516 kts | 108° |
| 2026-05-07 10:43 | 41.34835 | -7.41819 | 40905 ft | 516 kts | 108° |
| 2026-05-07 10:43 | 41.32673 | -7.32728 | 40906 ft | 516 kts | 108° |
| 2026-05-07 10:44 | 41.30500 | -7.23624 | 40896 ft | 516 kts | 108° |
| 2026-05-07 10:44 | 41.28334 | -7.14583 | 40898 ft | 516 kts | 108° |
| 2026-05-07 10:45 | 41.26132 | -7.05434 | 40909 ft | 517 kts | 109° |
| 2026-05-07 10:45 | 41.23937 | -6.96344 | 40894 ft | 517 kts | 109° |
| 2026-05-07 10:46 | 41.21747 | -6.87311 | 40899 ft | 517 kts | 109° |
| 2026-05-07 10:46 | 41.19535 | -6.78222 | 40907 ft | 517 kts | 109° |
| 2026-05-07 10:47 | 41.17314 | -6.69134 | 40899 ft | 517 kts | 109° |
| 2026-05-07 10:47 | 41.15086 | -6.60051 | 40892 ft | 518 kts | 109° |
| 2026-05-07 10:48 | 41.12849 | -6.50970 | 40905 ft | 517 kts | 109° |
| 2026-05-07 10:48 | 41.10608 | -6.41904 | 40901 ft | 517 kts | 109° |
| 2026-05-07 10:49 | 41.08360 | -6.32847 | 40901 ft | 517 kts | 109° |
| 2026-05-07 10:49 | 41.06105 | -6.23797 | 40908 ft | 517 kts | 109° |
| 2026-05-07 10:50 | 41.03843 | -6.14752 | 40903 ft | 517 kts | 109° |
| 2026-05-07 10:50 | 41.01572 | -6.05707 | 40908 ft | 517 kts | 109° |
| 2026-05-07 10:51 | 40.97084 | -5.87925 | 40913 ft | 518 kts | 110° |
| 2026-05-07 10:51 | 40.87868 | -5.51830 | 40847 ft | 510 kts | 110° |
| 2026-05-07 10:52 | 40.85683 | -5.43340 | 39920 ft | 501 kts | 110° |
| 2026-05-07 10:52 | 40.81145 | -5.25834 | 36825 ft | 502 kts | 110° |
| 2026-05-07 10:52 | 40.76612 | -5.08458 | 33612 ft | 500 kts | 111° |
| 2026-05-07 10:52 | 40.72044 | -4.91077 | 29578 ft | 502 kts | 111° |
| 2026-05-07 10:53 | 40.67525 | -4.73990 | 26112 ft | 481 kts | 110° |
| 2026-05-07 10:53 | 40.63199 | -4.57751 | 23267 ft | 461 kts | 111° |
| 2026-05-07 10:53 | 40.58716 | -4.49267 | 21224 ft | 439 kts | 136° |
| 2026-05-07 10:53 | 40.50449 | -4.37739 | 18587 ft | 422 kts | 134° |
| 2026-05-07 10:54 | 40.42705 | -4.26648 | 16195 ft | 403 kts | 133° |
| 2026-05-07 10:54 | 40.35306 | -4.16088 | 14174 ft | 382 kts | 131° |
| 2026-05-07 10:54 | 40.33152 | -4.10606 | 13479 ft | 364 kts | 106° |
| 2026-05-07 10:54 | 40.31935 | -4.05372 | 13085 ft | 378 kts | 107° |
| 2026-05-07 10:55 | 40.29526 | -3.95600 | 12151 ft | 382 kts | 108° |
| 2026-05-07 10:55 | 40.27842 | -3.88910 | 11489 ft | 370 kts | 108° |
| 2026-05-07 10:55 | 40.27046 | -3.85754 | 11193 ft | 358 kts | 108° |
| 2026-05-07 10:55 | 40.26296 | -3.82786 | 10899 ft | 329 kts | 108° |
| 2026-05-07 10:56 | 40.25609 | -3.80059 | 10635 ft | 303 kts | 110° |
| 2026-05-07 10:56 | 40.24847 | -3.77047 | 10352 ft | 281 kts | 111° |
| 2026-05-07 10:56 | 40.23644 | -3.72314 | 9912 ft | 269 kts | 111° |
| 2026-05-07 10:56 | 40.21752 | -3.64898 | 9291 ft | 288 kts | 111° |
| 2026-05-07 10:57 | 40.21122 | -3.62423 | 8990 ft | 286 kts | 111° |
| 2026-05-07 10:57 | 40.19756 | -3.57061 | 8445 ft | 276 kts | 111° |
| 2026-05-07 10:57 | 40.17501 | -3.47783 | 7495 ft | 258 kts | 96° |
| 2026-05-07 10:57 | 40.18074 | -3.44986 | 7351 ft | 256 kts | 60° |
| 2026-05-07 10:58 | 40.19257 | -3.43258 | 7116 ft | 260 kts | 43° |
| 2026-05-07 10:58 | 40.20617 | -3.41693 | 6910 ft | 261 kts | 42° |
| 2026-05-07 10:58 | 40.22116 | -3.40354 | 6694 ft | 262 kts | 31° |
| 2026-05-07 10:58 | 40.23718 | -3.39215 | 6494 ft | 261 kts | 29° |
| 2026-05-07 10:59 | 40.25349 | -3.38256 | 6284 ft | 255 kts | 12° |
| 2026-05-07 10:59 | 40.27071 | -3.38075 | 6109 ft | 244 kts | 3° |
| 2026-05-07 10:59 | 40.28758 | -3.37959 | 5910 ft | 242 kts | 4° |
| 2026-05-07 10:59 | 40.30426 | -3.37829 | 5730 ft | 237 kts | 4° |
| 2026-05-07 11:00 | 40.32035 | -3.38006 | 5496 ft | 230 kts | 334° |
| 2026-05-07 11:00 | 40.33273 | -3.39226 | 5321 ft | 222 kts | 316° |
| 2026-05-07 11:00 | 40.34445 | -3.40530 | 5119 ft | 221 kts | 321° |
| 2026-05-07 11:00 | 40.35704 | -3.41808 | 4811 ft | 235 kts | 321° |
| 2026-05-07 11:01 | 40.36997 | -3.43113 | 4516 ft | 232 kts | 321° |
| 2026-05-07 11:01 | 40.38241 | -3.44369 | 4185 ft | 218 kts | 321° |
| 2026-05-07 11:01 | 40.39409 | -3.45554 | 3901 ft | 207 kts | 321° |
| 2026-05-07 11:01 | 40.40529 | -3.46689 | 3620 ft | 197 kts | 322° |
| 2026-05-07 11:02 | 40.41588 | -3.47767 | 3377 ft | 191 kts | 322° |
| 2026-05-07 11:02 | 40.42603 | -3.48794 | 3122 ft | 174 kts | 322° |
| 2026-05-07 11:02 | 40.43503 | -3.49710 | 2876 ft | 152 kts | 323° |
| 2026-05-07 11:02 | 40.44313 | -3.50531 | 2680 ft | 145 kts | 323° |
| 2026-05-07 11:03 | 40.45121 | -3.51347 | 2488 ft | 148 kts | 323° |
| 2026-05-07 11:03 | 40.45932 | -3.52170 | 2336 ft | 148 kts | 323° |
| 2026-05-07 11:03 | 40.46752 | -3.53008 | 2159 ft | 150 kts | 323° |
| 2026-05-07 11:03 | 40.47577 | -3.53833 | 2008 ft | 148 kts | 323° |
| 2026-05-07 11:04 | 40.48325 | -3.54599 | 1987 ft | 122 kts | 321° |
| 2026-05-07 11:04 | 40.48898 | -3.55179 | 1987 ft | 86 kts | 322° |
| 2026-05-07 11:04 | 40.49276 | -3.55563 | 1988 ft | 51 kts | 322° |
| 2026-05-07 11:04 | 40.49406 | -3.55749 | 1989 ft | 18 kts | 288° |
| 2026-05-07 11:05 | 40.49411 | -3.55908 | 1988 ft | 18 kts | 270° |
| 2026-05-07 11:05 | 40.49412 | -3.56061 | 1988 ft | 15 kts | 270° |
| 2026-05-07 11:05 | 40.49412 | -3.56175 | 1988 ft | 12 kts | 269° |
| 2026-05-07 11:05 | 40.49361 | -3.56251 | 1988 ft | 12 kts | 189° |
| 2026-05-07 11:06 | 40.49274 | -3.56249 | 1988 ft | 12 kts | 179° |
| 2026-05-07 11:06 | 40.49197 | -3.56250 | 1988 ft | 7 kts | 180° |
| 2026-05-07 11:06 | 40.49155 | -3.56253 | 1985 ft | 5 kts | 196° |
| 2026-05-07 11:06 | 40.49146 | -3.56281 | 1987 ft | 3 kts | 276° |
| 2026-05-07 11:07 | 40.49150 | -3.56306 | 1986 ft | 3 kts | 281° |
| 2026-05-07 11:07 | 40.49152 | -3.56331 | 1985 ft | 3 kts | 270° |
| 2026-05-07 11:07 | 40.49151 | -3.56355 | 1839 ft | 3 kts | 269° |
| 2026-05-07 11:07 | 40.49151 | -3.56365 | 1985 ft | 0 kts | 269° |